Portada
METAR-TAF:

METAR-TAF

Aeroports :

Vanua Lava, Vanuatu

latitud: 13-51-06S, longitud: 167-32-13E, altitud: 2 m

Observació

L'informe es va fer fa 17 hores i 13 minuts, a les 06:00 UTC
Vent calma
Temperatura 30°C
Humitat 79%
Pressió 1007 hPa
Visibilitat 10 km o més
Cel ennuvolat a una alçada de 2000 ft

METAR: NVSC 260600Z 00000KT 9999 BKN020 30/26 Q1007

Hora: 10:13 (23:13 UTC)

Pronòstic

L'informe es va fer fa 6 hores i 13 minuts, a les 17:00 UTC
Pronòstic vàlid del 26 a les 18 UTC al 27 a les 18 UTC
Vent 2 kt amb direcció variable
Visibilitat 10 km o més
Escasses núvols a una alçada de 2000 ft

TAF: NVSC 261700Z 2618/2718 VRB02KT 9999 FEW020

Observacions i pronòstics meteorològics de més de 4000 aeroports (METAR i TAF).

Les estacions disponibles són els punts grocs i vermells al mapa.

Posi el ratolí al punt desitjat per veure el nom de l'estació.

Feu clic per veure les observacions i els pronòstics meteorològics.

Per canviar el mapa: feu clic els botons verds amb una creu de color negre per apropar; al botó verd amb un guió per allunyar la imatge; o en les fletxes verdes per a mapes adjacents.


METAR-TAF: